sensor_id;sensor_type;location;lat;lon;timestamp;P1;durP1;ratioP1;P2;durP2;ratioP2
13325;SDS011;6732;51.044;3.746;2022-09-03T00:10:08;9.93;;;8.93;;
13325;SDS011;6732;51.044;3.746;2022-09-03T00:12:46;9.65;;;8.23;;
13325;SDS011;6732;51.044;3.746;2022-09-03T00:15:17;11.13;;;7.70;;
13325;SDS011;6732;51.044;3.746;2022-09-03T00:17:47;9.90;;;8.35;;
13325;SDS011;6732;51.044;3.746;2022-09-03T00:23:04;10.13;;;8.00;;
13325;SDS011;6732;51.044;3.746;2022-09-03T00:25:43;10.98;;;8.05;;
13325;SDS011;6732;51.044;3.746;2022-09-03T00:28:18;8.40;;;7.13;;
13325;SDS011;6732;51.044;3.746;2022-09-03T00:30:50;9.05;;;8.15;;
13325;SDS011;6732;51.044;3.746;2022-09-03T00:33:25;8.55;;;7.70;;
13325;SDS011;6732;51.044;3.746;2022-09-03T00:36:38;9.13;;;8.00;;
13325;SDS011;6732;51.044;3.746;2022-09-03T00:38:52;8.63;;;7.72;;
13325;SDS011;6732;51.044;3.746;2022-09-03T00:49:31;9.27;;;7.57;;
13325;SDS011;6732;51.044;3.746;2022-09-03T01:00:19;9.25;;;8.13;;
13325;SDS011;6732;51.044;3.746;2022-09-03T01:05:21;9.60;;;8.20;;
13325;SDS011;6732;51.044;3.746;2022-09-03T01:07:53;8.68;;;7.88;;
13325;SDS011;6732;51.044;3.746;2022-09-03T01:13:23;9.25;;;7.68;;
13325;SDS011;6732;51.044;3.746;2022-09-03T01:18:33;8.57;;;7.57;;
13325;SDS011;6732;51.044;3.746;2022-09-03T01:21:19;10.68;;;7.95;;
13325;SDS011;6732;51.044;3.746;2022-09-03T01:26:43;10.32;;;8.50;;
13325;SDS011;6732;51.044;3.746;2022-09-03T01:29:40;8.70;;;7.80;;
13325;SDS011;6732;51.044;3.746;2022-09-03T01:32:25;9.73;;;7.47;;
13325;SDS011;6732;51.044;3.746;2022-09-03T01:40:43;8.82;;;7.95;;
13325;SDS011;6732;51.044;3.746;2022-09-03T01:43:27;10.18;;;8.48;;
13325;SDS011;6732;51.044;3.746;2022-09-03T01:46:22;8.38;;;7.18;;
13325;SDS011;6732;51.044;3.746;2022-09-03T01:49:27;8.73;;;7.75;;
13325;SDS011;6732;51.044;3.746;2022-09-03T01:51:58;8.65;;;7.10;;
13325;SDS011;6732;51.044;3.746;2022-09-03T02:02:46;8.38;;;7.47;;
13325;SDS011;6732;51.044;3.746;2022-09-03T02:05:20;8.68;;;7.05;;
13325;SDS011;6732;51.044;3.746;2022-09-03T02:07:59;9.40;;;7.63;;
13325;SDS011;6732;51.044;3.746;2022-09-03T02:15:45;7.30;;;6.47;;
13325;SDS011;6732;51.044;3.746;2022-09-03T02:18:21;8.18;;;7.07;;
13325;SDS011;6732;51.044;3.746;2022-09-03T02:20:51;8.70;;;7.50;;
13325;SDS011;6732;51.044;3.746;2022-09-03T02:23:18;8.60;;;7.15;;
13325;SDS011;6732;51.044;3.746;2022-09-03T02:25:47;8.52;;;7.30;;
13325;SDS011;6732;51.044;3.746;2022-09-03T02:28:17;8.60;;;7.45;;
13325;SDS011;6732;51.044;3.746;2022-09-03T02:30:43;8.02;;;6.90;;
13325;SDS011;6732;51.044;3.746;2022-09-03T02:33:09;7.63;;;6.82;;
13325;SDS011;6732;51.044;3.746;2022-09-03T02:35:35;7.75;;;7.05;;
13325;SDS011;6732;51.044;3.746;2022-09-03T02:38:09;7.60;;;6.80;;
13325;SDS011;6732;51.044;3.746;2022-09-03T02:40:53;8.90;;;7.45;;
13325;SDS011;6732;51.044;3.746;2022-09-03T02:43:21;7.72;;;6.95;;
13325;SDS011;6732;51.044;3.746;2022-09-03T02:45:49;7.72;;;6.93;;
13325;SDS011;6732;51.044;3.746;2022-09-03T02:48:19;7.60;;;6.57;;
13325;SDS011;6732;51.044;3.746;2022-09-03T02:50:48;8.13;;;7.32;;
13325;SDS011;6732;51.044;3.746;2022-09-03T02:53:14;8.88;;;7.00;;
13325;SDS011;6732;51.044;3.746;2022-09-03T02:55:47;7.97;;;6.75;;
13325;SDS011;6732;51.044;3.746;2022-09-03T02:58:12;8.00;;;7.07;;
13325;SDS011;6732;51.044;3.746;2022-09-03T03:00:38;7.55;;;6.75;;
13325;SDS011;6732;51.044;3.746;2022-09-03T03:03:05;7.70;;;6.97;;
13325;SDS011;6732;51.044;3.746;2022-09-03T03:05:38;8.07;;;6.53;;
13325;SDS011;6732;51.044;3.746;2022-09-03T03:08:07;8.23;;;6.97;;
13325;SDS011;6732;51.044;3.746;2022-09-03T03:10:36;7.78;;;6.85;;
13325;SDS011;6732;51.044;3.746;2022-09-03T03:13:02;7.55;;;6.80;;
13325;SDS011;6732;51.044;3.746;2022-09-03T03:15:28;7.47;;;6.70;;
13325;SDS011;6732;51.044;3.746;2022-09-03T03:17:57;7.78;;;6.97;;
13325;SDS011;6732;51.044;3.746;2022-09-03T03:20:23;8.65;;;7.13;;
13325;SDS011;6732;51.044;3.746;2022-09-03T03:22:49;9.18;;;7.00;;
13325;SDS011;6732;51.044;3.746;2022-09-03T03:25:15;8.48;;;7.53;;
13325;SDS011;6732;51.044;3.746;2022-09-03T03:27:41;7.93;;;7.00;;
13325;SDS011;6732;51.044;3.746;2022-09-03T03:30:08;8.90;;;7.05;;
13325;SDS011;6732;51.044;3.746;2022-09-03T03:32:36;8.18;;;7.38;;
13325;SDS011;6732;51.044;3.746;2022-09-03T03:35:03;9.10;;;7.22;;
13325;SDS011;6732;51.044;3.746;2022-09-03T03:37:35;7.95;;;6.65;;
13325;SDS011;6732;51.044;3.746;2022-09-03T03:40:15;7.80;;;6.22;;
13325;SDS011;6732;51.044;3.746;2022-09-03T03:42:42;8.20;;;7.30;;
13325;SDS011;6732;51.044;3.746;2022-09-03T03:45:09;8.27;;;7.28;;
13325;SDS011;6732;51.044;3.746;2022-09-03T03:47:35;7.15;;;6.45;;
13325;SDS011;6732;51.044;3.746;2022-09-03T03:50:02;7.72;;;6.93;;
13325;SDS011;6732;51.044;3.746;2022-09-03T03:52:34;7.82;;;7.05;;
13325;SDS011;6732;51.044;3.746;2022-09-03T03:55:00;7.20;;;6.50;;
13325;SDS011;6732;51.044;3.746;2022-09-03T03:57:28;8.43;;;6.78;;
13325;SDS011;6732;51.044;3.746;2022-09-03T03:59:56;8.10;;;6.95;;
13325;SDS011;6732;51.044;3.746;2022-09-03T04:02:22;7.18;;;6.47;;
13325;SDS011;6732;51.044;3.746;2022-09-03T04:04:48;7.43;;;6.60;;
13325;SDS011;6732;51.044;3.746;2022-09-03T04:07:14;8.40;;;7.25;;
13325;SDS011;6732;51.044;3.746;2022-09-03T04:09:39;7.75;;;6.55;;
13325;SDS011;6732;51.044;3.746;2022-09-03T04:12:05;8.40;;;6.90;;
13325;SDS011;6732;51.044;3.746;2022-09-03T04:14:33;9.38;;;7.00;;
13325;SDS011;6732;51.044;3.746;2022-09-03T04:17:00;9.68;;;7.55;;
13325;SDS011;6732;51.044;3.746;2022-09-03T04:19:30;9.90;;;7.88;;
13325;SDS011;6732;51.044;3.746;2022-09-03T04:21:56;9.32;;;8.05;;
13325;SDS011;6732;51.044;3.746;2022-09-03T04:24:24;11.18;;;8.32;;
13325;SDS011;6732;51.044;3.746;2022-09-03T04:26:51;10.10;;;8.23;;
13325;SDS011;6732;51.044;3.746;2022-09-03T04:29:18;9.63;;;8.25;;
13325;SDS011;6732;51.044;3.746;2022-09-03T04:31:46;9.00;;;7.80;;
13325;SDS011;6732;51.044;3.746;2022-09-03T04:34:30;8.82;;;7.93;;
13325;SDS011;6732;51.044;3.746;2022-09-03T04:37:00;9.75;;;8.60;;
13325;SDS011;6732;51.044;3.746;2022-09-03T04:39:33;10.52;;;8.20;;
13325;SDS011;6732;51.044;3.746;2022-09-03T04:42:12;9.50;;;8.60;;
13325;SDS011;6732;51.044;3.746;2022-09-03T04:44:38;9.85;;;8.85;;
13325;SDS011;6732;51.044;3.746;2022-09-03T04:47:05;9.15;;;8.23;;
13325;SDS011;6732;51.044;3.746;2022-09-03T04:49:31;9.45;;;8.43;;
13325;SDS011;6732;51.044;3.746;2022-09-03T04:51:58;10.07;;;9.02;;
13325;SDS011;6732;51.044;3.746;2022-09-03T04:54:24;9.77;;;8.77;;
13325;SDS011;6732;51.044;3.746;2022-09-03T04:56:50;11.38;;;8.80;;
13325;SDS011;6732;51.044;3.746;2022-09-03T04:59:16;10.43;;;9.18;;
13325;SDS011;6732;51.044;3.746;2022-09-03T05:01:42;10.50;;;9.25;;
13325;SDS011;6732;51.044;3.746;2022-09-03T05:04:08;11.75;;;9.23;;
13325;SDS011;6732;51.044;3.746;2022-09-03T05:06:35;10.35;;;9.23;;
13325;SDS011;6732;51.044;3.746;2022-09-03T05:09:01;13.40;;;9.73;;
13325;SDS011;6732;51.044;3.746;2022-09-03T05:11:28;10.75;;;9.65;;
13325;SDS011;6732;51.044;3.746;2022-09-03T05:13:55;10.40;;;9.30;;
13325;SDS011;6732;51.044;3.746;2022-09-03T05:16:22;10.82;;;9.13;;
13325;SDS011;6732;51.044;3.746;2022-09-03T05:18:53;10.80;;;9.75;;
13325;SDS011;6732;51.044;3.746;2022-09-03T05:21:21;10.93;;;9.23;;
13325;SDS011;6732;51.044;3.746;2022-09-03T05:23:48;12.35;;;9.18;;
13325;SDS011;6732;51.044;3.746;2022-09-03T05:26:19;10.60;;;9.50;;
13325;SDS011;6732;51.044;3.746;2022-09-03T05:28:51;11.13;;;9.43;;
13325;SDS011;6732;51.044;3.746;2022-09-03T05:31:20;11.25;;;9.43;;
13325;SDS011;6732;51.044;3.746;2022-09-03T05:33:47;11.90;;;9.35;;
13325;SDS011;6732;51.044;3.746;2022-09-03T05:36:16;10.40;;;9.10;;
13325;SDS011;6732;51.044;3.746;2022-09-03T05:38:50;13.10;;;10.50;;
13325;SDS011;6732;51.044;3.746;2022-09-03T05:41:18;12.68;;;9.93;;
13325;SDS011;6732;51.044;3.746;2022-09-03T05:43:48;16.42;;;10.27;;
13325;SDS011;6732;51.044;3.746;2022-09-03T05:46:23;12.35;;;10.52;;
13325;SDS011;6732;51.044;3.746;2022-09-03T05:48:58;12.80;;;10.30;;
13325;SDS011;6732;51.044;3.746;2022-09-03T05:51:26;11.27;;;10.07;;
13325;SDS011;6732;51.044;3.746;2022-09-03T05:53:53;13.65;;;10.82;;
13325;SDS011;6732;51.044;3.746;2022-09-03T05:56:20;11.55;;;10.38;;
13325;SDS011;6732;51.044;3.746;2022-09-03T05:58:49;14.10;;;10.70;;
13325;SDS011;6732;51.044;3.746;2022-09-03T06:03:52;12.90;;;10.55;;
13325;SDS011;6732;51.044;3.746;2022-09-03T06:06:19;14.63;;;10.80;;
13325;SDS011;6732;51.044;3.746;2022-09-03T06:08:53;13.68;;;11.10;;
13325;SDS011;6732;51.044;3.746;2022-09-03T06:11:20;12.02;;;10.80;;
13325;SDS011;6732;51.044;3.746;2022-09-03T06:13:51;12.48;;;10.82;;
13325;SDS011;6732;51.044;3.746;2022-09-03T06:16:17;12.18;;;10.98;;
13325;SDS011;6732;51.044;3.746;2022-09-03T06:18:43;15.55;;;12.00;;
13325;SDS011;6732;51.044;3.746;2022-09-03T06:21:08;12.98;;;11.68;;
13325;SDS011;6732;51.044;3.746;2022-09-03T06:23:40;13.65;;;11.85;;
13325;SDS011;6732;51.044;3.746;2022-09-03T06:26:10;12.90;;;11.52;;
13325;SDS011;6732;51.044;3.746;2022-09-03T06:28:39;14.35;;;11.60;;
13325;SDS011;6732;51.044;3.746;2022-09-03T06:31:08;14.18;;;11.07;;
13325;SDS011;6732;51.044;3.746;2022-09-03T06:33:36;13.40;;;11.60;;
13325;SDS011;6732;51.044;3.746;2022-09-03T06:36:06;15.02;;;11.45;;
13325;SDS011;6732;51.044;3.746;2022-09-03T06:38:34;13.93;;;12.13;;
13325;SDS011;6732;51.044;3.746;2022-09-03T06:41:09;13.20;;;11.55;;
13325;SDS011;6732;51.044;3.746;2022-09-03T06:43:38;14.93;;;12.00;;
13325;SDS011;6732;51.044;3.746;2022-09-03T06:46:10;13.00;;;11.23;;
13325;SDS011;6732;51.044;3.746;2022-09-03T06:48:37;16.80;;;12.15;;
13325;SDS011;6732;51.044;3.746;2022-09-03T06:51:09;14.25;;;11.95;;
13325;SDS011;6732;51.044;3.746;2022-09-03T06:53:37;15.63;;;11.90;;
13325;SDS011;6732;51.044;3.746;2022-09-03T06:56:06;16.10;;;13.43;;
13325;SDS011;6732;51.044;3.746;2022-09-03T06:58:37;14.35;;;12.85;;
13325;SDS011;6732;51.044;3.746;2022-09-03T07:01:09;14.63;;;12.98;;
13325;SDS011;6732;51.044;3.746;2022-09-03T07:03:40;15.27;;;13.27;;
13325;SDS011;6732;51.044;3.746;2022-09-03T07:06:11;17.85;;;13.43;;
13325;SDS011;6732;51.044;3.746;2022-09-03T07:08:42;15.90;;;13.48;;
13325;SDS011;6732;51.044;3.746;2022-09-03T07:11:12;14.20;;;12.70;;
13325;SDS011;6732;51.044;3.746;2022-09-03T07:13:41;15.25;;;12.68;;
13325;SDS011;6732;51.044;3.746;2022-09-03T07:16:10;17.27;;;13.20;;
13325;SDS011;6732;51.044;3.746;2022-09-03T07:18:37;16.92;;;13.77;;
13325;SDS011;6732;51.044;3.746;2022-09-03T07:21:05;14.55;;;12.38;;
13325;SDS011;6732;51.044;3.746;2022-09-03T07:23:33;15.00;;;13.13;;
13325;SDS011;6732;51.044;3.746;2022-09-03T07:26:02;16.70;;;12.80;;
13325;SDS011;6732;51.044;3.746;2022-09-03T07:28:30;14.95;;;13.00;;
13325;SDS011;6732;51.044;3.746;2022-09-03T07:31:05;15.77;;;12.77;;
13325;SDS011;6732;51.044;3.746;2022-09-03T07:33:37;15.90;;;13.13;;
13325;SDS011;6732;51.044;3.746;2022-09-03T07:36:05;17.40;;;13.35;;
13325;SDS011;6732;51.044;3.746;2022-09-03T07:38:32;15.60;;;12.20;;
13325;SDS011;6732;51.044;3.746;2022-09-03T07:41:13;13.73;;;12.10;;
13325;SDS011;6732;51.044;3.746;2022-09-03T07:43:41;15.02;;;11.52;;
13325;SDS011;6732;51.044;3.746;2022-09-03T07:46:09;13.27;;;11.52;;
13325;SDS011;6732;51.044;3.746;2022-09-03T07:48:39;15.68;;;11.95;;
13325;SDS011;6732;51.044;3.746;2022-09-03T07:51:06;13.13;;;11.77;;
13325;SDS011;6732;51.044;3.746;2022-09-03T07:53:32;16.95;;;12.38;;
13325;SDS011;6732;51.044;3.746;2022-09-03T07:56:06;13.57;;;11.65;;
13325;SDS011;6732;51.044;3.746;2022-09-03T07:58:35;12.32;;;11.05;;
13325;SDS011;6732;51.044;3.746;2022-09-03T08:01:09;11.90;;;10.70;;
13325;SDS011;6732;51.044;3.746;2022-09-03T08:03:37;13.07;;;10.88;;
13325;SDS011;6732;51.044;3.746;2022-09-03T08:06:11;13.10;;;10.43;;
13325;SDS011;6732;51.044;3.746;2022-09-03T08:08:38;13.48;;;10.40;;
13325;SDS011;6732;51.044;3.746;2022-09-03T08:11:06;12.30;;;10.07;;
13325;SDS011;6732;51.044;3.746;2022-09-03T08:13:57;11.73;;;9.60;;
13325;SDS011;6732;51.044;3.746;2022-09-03T08:16:31;12.68;;;10.50;;
13325;SDS011;6732;51.044;3.746;2022-09-03T08:18:59;12.10;;;10.70;;
13325;SDS011;6732;51.044;3.746;2022-09-03T08:21:25;11.63;;;10.43;;
13325;SDS011;6732;51.044;3.746;2022-09-03T08:23:52;11.95;;;9.95;;
13325;SDS011;6732;51.044;3.746;2022-09-03T08:26:26;12.43;;;10.80;;
13325;SDS011;6732;51.044;3.746;2022-09-03T08:28:54;10.98;;;9.93;;
13325;SDS011;6732;51.044;3.746;2022-09-03T08:31:21;13.40;;;10.55;;
13325;SDS011;6732;51.044;3.746;2022-09-03T08:33:49;11.07;;;9.98;;
13325;SDS011;6732;51.044;3.746;2022-09-03T08:36:18;12.95;;;10.07;;
13325;SDS011;6732;51.044;3.746;2022-09-03T08:38:52;10.52;;;9.43;;
13325;SDS011;6732;51.044;3.746;2022-09-03T08:57:46;9.25;;;8.32;;
13325;SDS011;6732;51.044;3.746;2022-09-03T09:00:14;12.13;;;8.32;;
13325;SDS011;6732;51.044;3.746;2022-09-03T09:08:47;10.48;;;8.32;;
13325;SDS011;6732;51.044;3.746;2022-09-03T09:13:57;9.25;;;8.32;;
13325;SDS011;6732;51.044;3.746;2022-09-03T09:16:32;12.52;;;9.10;;
13325;SDS011;6732;51.044;3.746;2022-09-03T09:21:51;8.43;;;7.63;;
13325;SDS011;6732;51.044;3.746;2022-09-03T09:24:23;9.13;;;8.20;;
13325;SDS011;6732;51.044;3.746;2022-09-03T09:27:08;9.38;;;7.63;;
13325;SDS011;6732;51.044;3.746;2022-09-03T09:29:37;9.02;;;8.13;;
13325;SDS011;6732;51.044;3.746;2022-09-03T09:32:04;9.77;;;7.68;;
13325;SDS011;6732;51.044;3.746;2022-09-03T09:34:35;8.70;;;7.53;;
13325;SDS011;6732;51.044;3.746;2022-09-03T09:37:07;9.00;;;7.30;;
13325;SDS011;6732;51.044;3.746;2022-09-03T09:39:37;9.25;;;7.57;;
13325;SDS011;6732;51.044;3.746;2022-09-03T09:42:19;12.77;;;8.15;;
13325;SDS011;6732;51.044;3.746;2022-09-03T09:44:46;10.68;;;7.70;;
13325;SDS011;6732;51.044;3.746;2022-09-03T09:47:14;9.32;;;8.32;;
13325;SDS011;6732;51.044;3.746;2022-09-03T09:49:53;8.40;;;7.53;;
13325;SDS011;6732;51.044;3.746;2022-09-03T09:52:22;10.38;;;7.47;;
13325;SDS011;6732;51.044;3.746;2022-09-03T09:54:51;9.10;;;8.00;;
13325;SDS011;6732;51.044;3.746;2022-09-03T09:57:22;8.75;;;7.25;;
13325;SDS011;6732;51.044;3.746;2022-09-03T09:59:49;8.27;;;7.47;;
13325;SDS011;6732;51.044;3.746;2022-09-03T10:02:33;8.20;;;7.40;;
13325;SDS011;6732;51.044;3.746;2022-09-03T10:05:11;10.00;;;7.43;;
13325;SDS011;6732;51.044;3.746;2022-09-03T10:07:37;9.00;;;7.25;;
13325;SDS011;6732;51.044;3.746;2022-09-03T10:10:09;8.57;;;7.18;;
13325;SDS011;6732;51.044;3.746;2022-09-03T10:15:45;8.32;;;7.18;;
13325;SDS011;6732;51.044;3.746;2022-09-03T10:18:22;7.85;;;7.05;;
13325;SDS011;6732;51.044;3.746;2022-09-03T10:23:57;7.55;;;6.32;;
13325;SDS011;6732;51.044;3.746;2022-09-03T10:26:47;8.18;;;6.85;;
13325;SDS011;6732;51.044;3.746;2022-09-03T10:29:16;6.75;;;6.05;;
13325;SDS011;6732;51.044;3.746;2022-09-03T10:32:03;7.30;;;6.45;;
13325;SDS011;6732;51.044;3.746;2022-09-03T10:40:36;7.25;;;6.55;;
13325;SDS011;6732;51.044;3.746;2022-09-03T10:46:08;5.95;;;5.28;;
13325;SDS011;6732;51.044;3.746;2022-09-03T11:05:50;6.80;;;5.22;;
13325;SDS011;6732;51.044;3.746;2022-09-03T11:08:46;6.38;;;5.70;;
13325;SDS011;6732;51.044;3.746;2022-09-03T11:11:18;6.53;;;5.28;;
13325;SDS011;6732;51.044;3.746;2022-09-03T11:14:06;6.25;;;4.75;;
13325;SDS011;6732;51.044;3.746;2022-09-03T11:16:57;8.07;;;5.72;;
13325;SDS011;6732;51.044;3.746;2022-09-03T11:19:26;6.60;;;5.57;;
13325;SDS011;6732;51.044;3.746;2022-09-03T11:22:00;6.55;;;5.88;;
13325;SDS011;6732;51.044;3.746;2022-09-03T11:24:29;9.18;;;5.97;;
13325;SDS011;6732;51.044;3.746;2022-09-03T11:27:01;7.05;;;6.20;;
13325;SDS011;6732;51.044;3.746;2022-09-03T11:29:33;11.38;;;5.80;;
13325;SDS011;6732;51.044;3.746;2022-09-03T11:32:15;5.65;;;5.10;;
13325;SDS011;6732;51.044;3.746;2022-09-03T11:34:49;6.82;;;5.03;;
13325;SDS011;6732;51.044;3.746;2022-09-03T11:37:19;6.63;;;5.50;;
13325;SDS011;6732;51.044;3.746;2022-09-03T11:42:39;6.53;;;5.68;;
13325;SDS011;6732;51.044;3.746;2022-09-03T11:47:51;6.80;;;6.13;;
13325;SDS011;6732;51.044;3.746;2022-09-03T11:50:25;7.22;;;6.20;;
13325;SDS011;6732;51.044;3.746;2022-09-03T11:58:33;6.50;;;5.80;;
13325;SDS011;6732;51.044;3.746;2022-09-03T12:01:03;7.57;;;5.03;;
13325;SDS011;6732;51.044;3.746;2022-09-03T12:19:50;7.53;;;5.07;;
13325;SDS011;6732;51.044;3.746;2022-09-03T12:22:22;6.30;;;5.15;;
13325;SDS011;6732;51.044;3.746;2022-09-03T12:24:50;4.72;;;4.28;;
13325;SDS011;6732;51.044;3.746;2022-09-03T12:27:18;6.70;;;5.00;;
13325;SDS011;6732;51.044;3.746;2022-09-03T12:29:51;5.40;;;4.90;;
13325;SDS011;6732;51.044;3.746;2022-09-03T12:32:20;4.90;;;4.43;;
13325;SDS011;6732;51.044;3.746;2022-09-03T12:34:47;5.15;;;4.68;;
13325;SDS011;6732;51.044;3.746;2022-09-03T12:37:17;5.80;;;4.90;;
13325;SDS011;6732;51.044;3.746;2022-09-03T12:39:54;5.47;;;4.70;;
13325;SDS011;6732;51.044;3.746;2022-09-03T12:42:41;5.45;;;4.95;;
13325;SDS011;6732;51.044;3.746;2022-09-03T12:45:08;5.45;;;4.95;;
13325;SDS011;6732;51.044;3.746;2022-09-03T12:47:40;5.60;;;5.10;;
13325;SDS011;6732;51.044;3.746;2022-09-03T12:55:39;5.55;;;5.05;;
13325;SDS011;6732;51.044;3.746;2022-09-03T12:58:16;6.10;;;5.50;;
13325;SDS011;6732;51.044;3.746;2022-09-03T13:01:08;5.78;;;5.18;;
13325;SDS011;6732;51.044;3.746;2022-09-03T13:06:14;6.32;;;5.13;;
13325;SDS011;6732;51.044;3.746;2022-09-03T13:08:48;6.00;;;5.40;;
13325;SDS011;6732;51.044;3.746;2022-09-03T13:11:19;6.13;;;5.50;;
13325;SDS011;6732;51.044;3.746;2022-09-03T13:14:00;5.65;;;5.05;;
13325;SDS011;6732;51.044;3.746;2022-09-03T13:27:45;6.97;;;4.88;;
13325;SDS011;6732;51.044;3.746;2022-09-03T13:33:39;5.43;;;4.22;;
13325;SDS011;6732;51.044;3.746;2022-09-03T13:36:12;5.30;;;4.65;;
13325;SDS011;6732;51.044;3.746;2022-09-03T13:42:19;5.43;;;4.53;;
13325;SDS011;6732;51.044;3.746;2022-09-03T13:45:10;5.93;;;4.60;;
13325;SDS011;6732;51.044;3.746;2022-09-03T13:47:47;5.00;;;4.28;;
13325;SDS011;6732;51.044;3.746;2022-09-03T13:51:20;4.32;;;3.90;;
13325;SDS011;6732;51.044;3.746;2022-09-03T13:56:43;4.28;;;3.50;;
13325;SDS011;6732;51.044;3.746;2022-09-03T13:59:19;4.40;;;4.00;;
13325;SDS011;6732;51.044;3.746;2022-09-03T14:05:13;4.65;;;3.70;;
13325;SDS011;6732;51.044;3.746;2022-09-03T14:07:25;7.85;;;3.85;;
13325;SDS011;6732;51.044;3.746;2022-09-03T14:10:15;4.07;;;3.63;;
13325;SDS011;6732;51.044;3.746;2022-09-03T14:13:05;4.15;;;3.75;;
13325;SDS011;6732;51.044;3.746;2022-09-03T14:15:57;3.83;;;3.53;;
13325;SDS011;6732;51.044;3.746;2022-09-03T14:21:20;3.92;;;3.53;;
13325;SDS011;6732;51.044;3.746;2022-09-03T14:26:35;3.60;;;3.30;;
13325;SDS011;6732;51.044;3.746;2022-09-03T14:29:07;5.53;;;3.17;;
13325;SDS011;6732;51.044;3.746;2022-09-03T14:31:54;4.15;;;3.20;;
13325;SDS011;6732;51.044;3.746;2022-09-03T14:34:44;4.60;;;3.20;;
13325;SDS011;6732;51.044;3.746;2022-09-03T14:37:42;5.20;;;3.58;;
13325;SDS011;6732;51.044;3.746;2022-09-03T14:45:57;4.38;;;3.63;;
13325;SDS011;6732;51.044;3.746;2022-09-03T14:54:15;3.50;;;3.20;;
13325;SDS011;6732;51.044;3.746;2022-09-03T14:56:55;3.42;;;3.15;;
13325;SDS011;6732;51.044;3.746;2022-09-03T15:02:17;3.22;;;2.85;;
13325;SDS011;6732;51.044;3.746;2022-09-03T15:08:07;4.18;;;3.03;;
13325;SDS011;6732;51.044;3.746;2022-09-03T15:19:09;4.20;;;3.00;;
13325;SDS011;6732;51.044;3.746;2022-09-03T15:22:12;2.97;;;2.78;;
13325;SDS011;6732;51.044;3.746;2022-09-03T15:30:21;4.35;;;2.63;;
13325;SDS011;6732;51.044;3.746;2022-09-03T15:44:14;2.47;;;2.28;;
13325;SDS011;6732;51.044;3.746;2022-09-03T15:49:30;4.65;;;2.78;;
13325;SDS011;6732;51.044;3.746;2022-09-03T15:57:28;3.03;;;2.83;;
13325;SDS011;6732;51.044;3.746;2022-09-03T16:00:11;3.58;;;2.78;;
13325;SDS011;6732;51.044;3.746;2022-09-03T16:02:44;4.20;;;2.80;;
13325;SDS011;6732;51.044;3.746;2022-09-03T16:05:43;3.67;;;2.45;;
13325;SDS011;6732;51.044;3.746;2022-09-03T16:08:28;2.58;;;2.38;;
13325;SDS011;6732;51.044;3.746;2022-09-03T16:11:04;2.53;;;2.33;;
13325;SDS011;6732;51.044;3.746;2022-09-03T16:13:52;2.67;;;2.47;;
13325;SDS011;6732;51.044;3.746;2022-09-03T16:21:23;2.63;;;2.40;;
13325;SDS011;6732;51.044;3.746;2022-09-03T16:24:23;2.75;;;2.40;;
13325;SDS011;6732;51.044;3.746;2022-09-03T16:29:31;3.00;;;2.80;;
13325;SDS011;6732;51.044;3.746;2022-09-03T16:34:30;3.38;;;2.70;;
13325;SDS011;6732;51.044;3.746;2022-09-03T16:45:59;5.60;;;3.40;;
13325;SDS011;6732;51.044;3.746;2022-09-03T16:49:04;5.05;;;3.70;;
13325;SDS011;6732;51.044;3.746;2022-09-03T16:51:39;4.63;;;4.15;;
13325;SDS011;6732;51.044;3.746;2022-09-03T16:54:17;4.25;;;3.60;;
13325;SDS011;6732;51.044;3.746;2022-09-03T16:57:42;4.03;;;3.72;;
13325;SDS011;6732;51.044;3.746;2022-09-03T17:00:02;4.40;;;4.00;;
13325;SDS011;6732;51.044;3.746;2022-09-03T17:10:48;4.97;;;3.65;;
13325;SDS011;6732;51.044;3.746;2022-09-03T17:16:12;5.10;;;3.28;;
13325;SDS011;6732;51.044;3.746;2022-09-03T17:19:10;3.38;;;3.08;;
13325;SDS011;6732;51.044;3.746;2022-09-03T17:24:43;2.92;;;2.72;;
13325;SDS011;6732;51.044;3.746;2022-09-03T17:36:09;3.10;;;2.75;;
13325;SDS011;6732;51.044;3.746;2022-09-03T17:49:47;2.95;;;2.63;;
13325;SDS011;6732;51.044;3.746;2022-09-03T17:54:58;3.17;;;2.60;;
13325;SDS011;6732;51.044;3.746;2022-09-03T17:57:30;2.88;;;2.50;;
13325;SDS011;6732;51.044;3.746;2022-09-03T18:00:07;2.60;;;2.40;;
13325;SDS011;6732;51.044;3.746;2022-09-03T18:05:21;3.70;;;2.30;;
13325;SDS011;6732;51.044;3.746;2022-09-03T18:07:51;4.60;;;2.90;;
13325;SDS011;6732;51.044;3.746;2022-09-03T18:10:28;2.15;;;1.95;;
13325;SDS011;6732;51.044;3.746;2022-09-03T18:13:10;2.40;;;2.08;;
13325;SDS011;6732;51.044;3.746;2022-09-03T18:16:09;2.55;;;2.35;;
13325;SDS011;6732;51.044;3.746;2022-09-03T18:18:44;4.93;;;2.25;;
13325;SDS011;6732;51.044;3.746;2022-09-03T18:21:21;2.90;;;2.35;;
13325;SDS011;6732;51.044;3.746;2022-09-03T18:27:13;2.50;;;2.30;;
13325;SDS011;6732;51.044;3.746;2022-09-03T18:30:32;3.20;;;2.60;;
13325;SDS011;6732;51.044;3.746;2022-09-03T18:33:19;3.92;;;2.38;;
13325;SDS011;6732;51.044;3.746;2022-09-03T18:36:06;2.63;;;2.42;;
13325;SDS011;6732;51.044;3.746;2022-09-03T18:38:51;2.45;;;2.25;;
13325;SDS011;6732;51.044;3.746;2022-09-03T18:48:06;6.65;;;4.57;;
13325;SDS011;6732;51.044;3.746;2022-09-03T18:57:07;4.00;;;3.47;;
13325;SDS011;6732;51.044;3.746;2022-09-03T19:00:03;3.90;;;3.60;;
13325;SDS011;6732;51.044;3.746;2022-09-03T19:09:02;3.60;;;2.90;;
13325;SDS011;6732;51.044;3.746;2022-09-03T19:15:01;4.18;;;3.78;;
13325;SDS011;6732;51.044;3.746;2022-09-03T19:23:51;6.10;;;4.35;;
13325;SDS011;6732;51.044;3.746;2022-09-03T19:26:44;4.57;;;4.10;;
13325;SDS011;6732;51.044;3.746;2022-09-03T19:32:51;5.82;;;4.38;;
13325;SDS011;6732;51.044;3.746;2022-09-03T19:35:45;5.20;;;4.70;;
13325;SDS011;6732;51.044;3.746;2022-09-03T19:38:44;5.55;;;4.28;;
13325;SDS011;6732;51.044;3.746;2022-09-03T19:41:44;5.50;;;4.82;;
13325;SDS011;6732;51.044;3.746;2022-09-03T19:47:41;5.20;;;4.47;;
13325;SDS011;6732;51.044;3.746;2022-09-03T19:50:45;5.15;;;3.70;;
13325;SDS011;6732;51.044;3.746;2022-09-03T19:53:43;4.88;;;4.38;;
13325;SDS011;6732;51.044;3.746;2022-09-03T19:56:30;5.32;;;4.78;;
13325;SDS011;6732;51.044;3.746;2022-09-03T19:59:18;5.55;;;4.35;;
13325;SDS011;6732;51.044;3.746;2022-09-03T20:02:05;5.10;;;4.57;;
13325;SDS011;6732;51.044;3.746;2022-09-03T20:04:55;5.35;;;4.40;;
13325;SDS011;6732;51.044;3.746;2022-09-03T20:07:43;6.40;;;4.38;;
13325;SDS011;6732;51.044;3.746;2022-09-03T20:10:30;4.80;;;4.28;;
13325;SDS011;6732;51.044;3.746;2022-09-03T20:13:06;5.55;;;4.43;;
13325;SDS011;6732;51.044;3.746;2022-09-03T20:18:58;4.68;;;4.28;;
13325;SDS011;6732;51.044;3.746;2022-09-03T20:21:49;7.82;;;4.50;;
13325;SDS011;6732;51.044;3.746;2022-09-03T20:27:18;4.97;;;4.47;;
13325;SDS011;6732;51.044;3.746;2022-09-03T20:30:03;5.05;;;4.45;;
13325;SDS011;6732;51.044;3.746;2022-09-03T20:41:41;5.45;;;3.97;;
13325;SDS011;6732;51.044;3.746;2022-09-03T20:44:24;4.78;;;4.30;;
13325;SDS011;6732;51.044;3.746;2022-09-03T20:52:06;5.03;;;4.28;;
13325;SDS011;6732;51.044;3.746;2022-09-03T20:54:36;6.00;;;4.10;;
13325;SDS011;6732;51.044;3.746;2022-09-03T20:57:23;4.53;;;4.13;;
13325;SDS011;6732;51.044;3.746;2022-09-03T21:08:47;5.18;;;4.68;;
13325;SDS011;6732;51.044;3.746;2022-09-03T21:14:04;5.53;;;4.10;;
13325;SDS011;6732;51.044;3.746;2022-09-03T21:19:40;4.50;;;4.10;;
13325;SDS011;6732;51.044;3.746;2022-09-03T21:22:24;5.25;;;4.70;;
13325;SDS011;6732;51.044;3.746;2022-09-03T21:25:06;5.22;;;4.72;;
13325;SDS011;6732;51.044;3.746;2022-09-03T21:27:38;5.90;;;5.30;;
13325;SDS011;6732;51.044;3.746;2022-09-03T21:30:18;8.52;;;7.40;;
13325;SDS011;6732;51.044;3.746;2022-09-03T21:32:47;9.15;;;7.93;;
13325;SDS011;6732;51.044;3.746;2022-09-03T21:35:36;12.38;;;9.00;;
13325;SDS011;6732;51.044;3.746;2022-09-03T21:38:19;10.65;;;8.80;;
13325;SDS011;6732;51.044;3.746;2022-09-03T21:40:58;12.63;;;11.32;;
13325;SDS011;6732;51.044;3.746;2022-09-03T21:43:31;17.38;;;13.13;;
13325;SDS011;6732;51.044;3.746;2022-09-03T21:46:23;16.05;;;13.68;;
13325;SDS011;6732;51.044;3.746;2022-09-03T21:51:32;18.02;;;16.08;;